Parc national de Yellowstone, WY (82190)

12:55 MDT le 02 septembre 2014 (GMT -0600)
Yellowstone | Change Station
CLOSE
Current Station
Aéroport
Location: West Yellowstone,
Altitude: 6644 ft
Stations météo à proximité

Alt. 6644 ft 44.69 °N, 111.12 °W | Updated 25 minutes ago

Clear
Ciel dégagé
63 ° F
Paraît 63 ° F
N
23
Vent Variable Vent de SSO
Gusts 31 mph

Aujourd'hui
Haut(e) -- | Bas -- ° F
--% Risque de précip.
Hier
Haut(e) -- | Bas -- ° F
Precip. -- pouce
6:45 AM 7:56 PM
Premier quartier, 54% visible
Pression 30.08 pouce
Visibilité 10.0 Miles terrestres
Nuages Ciel dégagé
Point de rosée 34 ° F
Humidité 34%
Précipitations 0.00 pouce
Profondeur de la couche neigeuse Non disponible.
UV 9 sur 12
Pollen 7.80 sur 12
Qualité de l'air Non disponible.
Flu Activity Non disponible.
METAR KWYS 021830Z AUTO 20020G27KT 10SM CLR 17/01 A3008 RMK AO2

More Conditions Fewer Conditions

Pression 30.08 pouce
Visibilité 10.0 Miles terrestres
Nuages Ciel dégagé
Point de rosée 34 ° F
Humidité 34%
Précipitations 0.00 pouce
Profondeur de la couche neigeuse Non disponible.
UV 9 sur 12
Pollen 7.80 sur 12
Qualité de l'air Non disponible.
Flu Activity Non disponible.
METAR KWYS 021830Z AUTO 20020G27KT 10SM CLR 17/01 A3008 RMK AO2

More Conditions Fewer Conditions

10-Day Weather Forecast

Almanac

Astronomie

Sep. 02, 2014 Lever Coucher
Temps réel 06:45 MDT 19:56 MDT
Crépuscule civil 06:15 MDT 20:26 MDT
Crépuscule nautique 05:38 MDT 21:02 MDT
Crépuscule astronomique 05:00 MDT 21:40 MDT
Lune 14:51 MDT Pas de coucher de lune
Durée de lumière visible 14h 11m
Longueur du jour
13h 11m
Tomorrow will be 3m 1s shorter.
Premier quartier, 54% of the Moon is Illuminated
Aujourd'hui
Premier quartier
Sep 8
Pleine lune
Sep 15
Dernier quartier
Sep 24
Nouveau
Oct 1
Premier quartier

Extrêmes aujourd'hui

State Highs State Lows

Community

WunderPhotos

Upload Photos

1,749,743 Photos téléchargées !

WunderBlogs® & News

By Dr. Jeff Masters
Director of Meteorology, Weather Underground
By Kari Strenfel
Meteorologist, Weather Underground
By Christopher C. Burt
Weather Historian, Weather Underground
September 2, 2014
September 2, 2014
September 2, 2014

Nearby

Épaisseur de neige

Station Depth Altitude
Parker Peak 1 in 9400 ft
Sylvan Lake 0 in 8420 ft
Thumb Divide 0 in 7980 ft
Lewis Lake Divide 0 in 7850 ft
Phillips Bench 0 in 8200 ft

Activité sismique

Ville Distance Mag. Time & Date
Driggs, Idaho 77 Miles terrestres 3.8 14:09 MDT
2014-08-30
Minimum magnitude displayed is 2.5.

Températures des eaux côtières

Lieu Température
Aucun rapport de station

Stations météo à proximité